sensor_id;sensor_type;location;lat;lon;timestamp;temperature;humidity
51021;DHT22;38907;45.562;8.856;2022-07-01T00:01:20;24.40;94.20
51021;DHT22;38907;45.562;8.856;2022-07-01T00:06:24;24.20;94.40
51021;DHT22;38907;45.562;8.856;2022-07-01T00:11:27;23.90;94.80
51021;DHT22;38907;45.562;8.856;2022-07-01T00:16:29;23.90;95.10
51021;DHT22;38907;45.562;8.856;2022-07-01T00:21:34;23.70;95.20
51021;DHT22;38907;45.562;8.856;2022-07-01T00:26:37;23.70;95.50
51021;DHT22;38907;45.562;8.856;2022-07-01T00:31:39;23.70;95.50
51021;DHT22;38907;45.562;8.856;2022-07-01T00:36:43;23.60;95.70
51021;DHT22;38907;45.562;8.856;2022-07-01T00:41:46;23.50;96.00
51021;DHT22;38907;45.562;8.856;2022-07-01T00:46:50;23.30;96.10
51021;DHT22;38907;45.562;8.856;2022-07-01T00:51:55;23.30;96.40
51021;DHT22;38907;45.562;8.856;2022-07-01T00:56:58;23.30;96.50
51021;DHT22;38907;45.562;8.856;2022-07-01T01:02:01;23.30;96.50
51021;DHT22;38907;45.562;8.856;2022-07-01T01:07:05;23.30;96.50
51021;DHT22;38907;45.562;8.856;2022-07-01T01:12:08;23.40;96.40
51021;DHT22;38907;45.562;8.856;2022-07-01T01:17:13;23.40;96.30
51021;DHT22;38907;45.562;8.856;2022-07-01T01:22:17;23.20;96.60
51021;DHT22;38907;45.562;8.856;2022-07-01T01:27:20;23.30;96.50
51021;DHT22;38907;45.562;8.856;2022-07-01T01:32:22;23.30;96.70
51021;DHT22;38907;45.562;8.856;2022-07-01T01:37:26;23.30;96.90
51021;DHT22;38907;45.562;8.856;2022-07-01T01:42:29;23.30;96.90
51021;DHT22;38907;45.562;8.856;2022-07-01T01:47:32;23.30;96.80
51021;DHT22;38907;45.562;8.856;2022-07-01T01:52:37;23.30;96.90
51021;DHT22;38907;45.562;8.856;2022-07-01T01:57:39;23.50;96.50
51021;DHT22;38907;45.562;8.856;2022-07-01T02:02:42;23.60;96.30
51021;DHT22;38907;45.562;8.856;2022-07-01T02:07:46;23.60;96.30
51021;DHT22;38907;45.562;8.856;2022-07-01T02:12:48;23.70;96.00
51021;DHT22;38907;45.562;8.856;2022-07-01T02:17:51;23.60;96.50
51021;DHT22;38907;45.562;8.856;2022-07-01T02:22:58;23.50;96.40
51021;DHT22;38907;45.562;8.856;2022-07-01T02:28:01;23.60;96.40
51021;DHT22;38907;45.562;8.856;2022-07-01T02:33:05;23.70;96.40
51021;DHT22;38907;45.562;8.856;2022-07-01T02:38:09;23.60;96.80
51021;DHT22;38907;45.562;8.856;2022-07-01T02:43:12;23.40;97.30
51021;DHT22;38907;45.562;8.856;2022-07-01T02:48:17;23.30;97.50
51021;DHT22;38907;45.562;8.856;2022-07-01T02:53:20;23.30;97.60
51021;DHT22;38907;45.562;8.856;2022-07-01T02:58:24;23.10;97.80
51021;DHT22;38907;45.562;8.856;2022-07-01T03:03:26;23.10;98.00
51021;DHT22;38907;45.562;8.856;2022-07-01T03:08:30;23.10;98.10
51021;DHT22;38907;45.562;8.856;2022-07-01T03:13:33;22.90;98.60
51021;DHT22;38907;45.562;8.856;2022-07-01T03:18:35;22.90;98.80
51021;DHT22;38907;45.562;8.856;2022-07-01T03:23:39;22.90;99.00
51021;DHT22;38907;45.562;8.856;2022-07-01T03:28:42;23.10;99.00
51021;DHT22;38907;45.562;8.856;2022-07-01T03:33:44;23.10;99.20
51021;DHT22;38907;45.562;8.856;2022-07-01T03:38:48;23.00;99.50
51021;DHT22;38907;45.562;8.856;2022-07-01T03:43:51;23.10;99.70
51021;DHT22;38907;45.562;8.856;2022-07-01T03:48:53;22.90;99.90
51021;DHT22;38907;45.562;8.856;2022-07-01T03:53:57;23.00;99.90
51021;DHT22;38907;45.562;8.856;2022-07-01T03:59:17;23.10;99.90
51021;DHT22;38907;45.562;8.856;2022-07-01T04:04:19;23.10;99.90
51021;DHT22;38907;45.562;8.856;2022-07-01T04:09:24;23.20;99.90
51021;DHT22;38907;45.562;8.856;2022-07-01T04:14:27;23.20;99.90
51021;DHT22;38907;45.562;8.856;2022-07-01T04:19:30;23.20;99.90
51021;DHT22;38907;45.562;8.856;2022-07-01T04:24:34;23.10;99.90
51021;DHT22;38907;45.562;8.856;2022-07-01T04:29:37;23.10;99.90
51021;DHT22;38907;45.562;8.856;2022-07-01T04:34:40;23.10;99.90
51021;DHT22;38907;45.562;8.856;2022-07-01T04:39:45;23.10;99.90
51021;DHT22;38907;45.562;8.856;2022-07-01T04:44:48;23.30;99.90
51021;DHT22;38907;45.562;8.856;2022-07-01T04:49:50;23.30;99.80
51021;DHT22;38907;45.562;8.856;2022-07-01T04:54:54;23.30;99.80
51021;DHT22;38907;45.562;8.856;2022-07-01T04:59:57;23.40;99.90
51021;DHT22;38907;45.562;8.856;2022-07-01T05:05:00;23.50;99.60
51021;DHT22;38907;45.562;8.856;2022-07-01T05:10:04;23.50;99.50
51021;DHT22;38907;45.562;8.856;2022-07-01T05:15:08;23.70;99.30
51021;DHT22;38907;45.562;8.856;2022-07-01T05:20:12;23.80;99.10
51021;DHT22;38907;45.562;8.856;2022-07-01T05:25:33;23.90;99.00
51021;DHT22;38907;45.562;8.856;2022-07-01T05:30:37;23.90;98.90
51021;DHT22;38907;45.562;8.856;2022-07-01T05:35:39;23.80;99.00
51021;DHT22;38907;45.562;8.856;2022-07-01T05:40:43;24.10;98.90
51021;DHT22;38907;45.562;8.856;2022-07-01T05:45:46;24.30;98.60
51021;DHT22;38907;45.562;8.856;2022-07-01T05:50:49;24.50;98.50
51021;DHT22;38907;45.562;8.856;2022-07-01T05:55:53;24.50;98.60
51021;DHT22;38907;45.562;8.856;2022-07-01T06:00:55;24.60;98.70
51021;DHT22;38907;45.562;8.856;2022-07-01T06:05:58;24.60;98.70
51021;DHT22;38907;45.562;8.856;2022-07-01T06:11:02;24.50;98.90
51021;DHT22;38907;45.562;8.856;2022-07-01T06:16:06;24.50;98.90
51021;DHT22;38907;45.562;8.856;2022-07-01T06:21:08;24.60;98.90
51021;DHT22;38907;45.562;8.856;2022-07-01T06:26:12;24.60;99.00
51021;DHT22;38907;45.562;8.856;2022-07-01T06:31:15;24.70;98.80
51021;DHT22;38907;45.562;8.856;2022-07-01T06:36:18;25.00;98.60
51021;DHT22;38907;45.562;8.856;2022-07-01T06:41:22;25.10;98.40
51021;DHT22;38907;45.562;8.856;2022-07-01T06:46:31;25.10;98.10
51021;DHT22;38907;45.562;8.856;2022-07-01T06:51:34;25.20;98.30
51021;DHT22;38907;45.562;8.856;2022-07-01T06:56:38;25.50;97.60
51021;DHT22;38907;45.562;8.856;2022-07-01T07:01:41;25.80;96.80
51021;DHT22;38907;45.562;8.856;2022-07-01T07:06:43;25.80;96.80
51021;DHT22;38907;45.562;8.856;2022-07-01T07:11:47;26.00;97.10
51021;DHT22;38907;45.562;8.856;2022-07-01T07:16:50;26.10;95.70
51021;DHT22;38907;45.562;8.856;2022-07-01T07:26:58;26.30;96.10
51021;DHT22;38907;45.562;8.856;2022-07-01T07:32:00;26.50;95.90
51021;DHT22;38907;45.562;8.856;2022-07-01T07:37:04;26.70;95.20
51021;DHT22;38907;45.562;8.856;2022-07-01T07:42:08;27.00;95.30
51021;DHT22;38907;45.562;8.856;2022-07-01T07:47:11;26.90;93.50
51021;DHT22;38907;45.562;8.856;2022-07-01T07:52:13;26.50;93.00
51021;DHT22;38907;45.562;8.856;2022-07-01T07:57:18;26.70;93.50
51021;DHT22;38907;45.562;8.856;2022-07-01T08:02:20;26.60;93.00
51021;DHT22;38907;45.562;8.856;2022-07-01T08:07:23;26.50;93.40
51021;DHT22;38907;45.562;8.856;2022-07-01T08:12:27;26.70;93.50
51021;DHT22;38907;45.562;8.856;2022-07-01T08:17:30;26.80;93.70
51021;DHT22;38907;45.562;8.856;2022-07-01T08:22:32;27.20;94.60
51021;DHT22;38907;45.562;8.856;2022-07-01T08:27:36;27.10;94.80
51021;DHT22;38907;45.562;8.856;2022-07-01T08:32:40;27.00;95.00
51021;DHT22;38907;45.562;8.856;2022-07-01T08:37:43;27.10;94.30
51021;DHT22;38907;45.562;8.856;2022-07-01T08:42:47;27.10;94.50
51021;DHT22;38907;45.562;8.856;2022-07-01T08:47:50;27.50;94.80
51021;DHT22;38907;45.562;8.856;2022-07-01T08:52:53;27.60;94.00
51021;DHT22;38907;45.562;8.856;2022-07-01T08:57:58;27.60;94.80
51021;DHT22;38907;45.562;8.856;2022-07-01T09:03:02;27.50;94.00
51021;DHT22;38907;45.562;8.856;2022-07-01T09:08:06;27.40;94.40
51021;DHT22;38907;45.562;8.856;2022-07-01T09:13:12;27.80;94.10
51021;DHT22;38907;45.562;8.856;2022-07-01T09:18:16;27.80;93.80
51021;DHT22;38907;45.562;8.856;2022-07-01T09:23:19;27.90;93.90
51021;DHT22;38907;45.562;8.856;2022-07-01T09:28:24;27.90;93.80
51021;DHT22;38907;45.562;8.856;2022-07-01T09:33:28;27.90;94.00
51021;DHT22;38907;45.562;8.856;2022-07-01T09:38:33;28.10;94.30
51021;DHT22;38907;45.562;8.856;2022-07-01T09:43:39;27.90;95.00
51021;DHT22;38907;45.562;8.856;2022-07-01T09:48:44;28.10;94.90
51021;DHT22;38907;45.562;8.856;2022-07-01T09:53:47;28.30;93.70
51021;DHT22;38907;45.562;8.856;2022-07-01T09:58:51;28.40;93.80
51021;DHT22;38907;45.562;8.856;2022-07-01T10:03:55;28.30;93.80
51021;DHT22;38907;45.562;8.856;2022-07-01T10:09:06;28.00;94.80
51021;DHT22;38907;45.562;8.856;2022-07-01T10:14:14;28.30;93.50
51021;DHT22;38907;45.562;8.856;2022-07-01T10:19:27;28.40;93.60
51021;DHT22;38907;45.562;8.856;2022-07-01T10:24:30;28.50;94.10
51021;DHT22;38907;45.562;8.856;2022-07-01T10:29:36;28.80;92.70
51021;DHT22;38907;45.562;8.856;2022-07-01T10:34:41;28.70;92.60
51021;DHT22;38907;45.562;8.856;2022-07-01T10:39:57;29.10;92.50
51021;DHT22;38907;45.562;8.856;2022-07-01T10:45:07;29.40;92.60
51021;DHT22;38907;45.562;8.856;2022-07-01T10:50:12;29.80;93.50
51021;DHT22;38907;45.562;8.856;2022-07-01T10:55:17;29.60;93.80
51021;DHT22;38907;45.562;8.856;2022-07-01T11:00:35;29.30;93.30
51021;DHT22;38907;45.562;8.856;2022-07-01T11:05:38;29.00;94.20
51021;DHT22;38907;45.562;8.856;2022-07-01T11:10:42;28.80;94.30
51021;DHT22;38907;45.562;8.856;2022-07-01T11:15:46;28.90;94.30
51021;DHT22;38907;45.562;8.856;2022-07-01T11:20:49;28.90;93.80
51021;DHT22;38907;45.562;8.856;2022-07-01T11:25:52;28.70;94.30
51021;DHT22;38907;45.562;8.856;2022-07-01T11:31:00;28.80;94.20
51021;DHT22;38907;45.562;8.856;2022-07-01T11:36:03;28.80;94.30
51021;DHT22;38907;45.562;8.856;2022-07-01T11:41:25;28.70;94.30
51021;DHT22;38907;45.562;8.856;2022-07-01T11:46:29;28.70;94.60
51021;DHT22;38907;45.562;8.856;2022-07-01T11:51:31;29.00;94.20
51021;DHT22;38907;45.562;8.856;2022-07-01T11:56:35;29.30;94.30
51021;DHT22;38907;45.562;8.856;2022-07-01T12:01:41;29.20;93.30
51021;DHT22;38907;45.562;8.856;2022-07-01T12:06:45;29.20;93.90
51021;DHT22;38907;45.562;8.856;2022-07-01T12:11:49;29.20;93.50
51021;DHT22;38907;45.562;8.856;2022-07-01T12:16:55;29.40;93.70
51021;DHT22;38907;45.562;8.856;2022-07-01T12:27:04;29.50;92.70
51021;DHT22;38907;45.562;8.856;2022-07-01T12:32:12;29.60;92.80
51021;DHT22;38907;45.562;8.856;2022-07-01T12:37:16;29.70;93.00
51021;DHT22;38907;45.562;8.856;2022-07-01T12:42:24;29.80;92.60
51021;DHT22;38907;45.562;8.856;2022-07-01T12:47:30;29.70;92.90
51021;DHT22;38907;45.562;8.856;2022-07-01T12:52:34;30.10;91.30
51021;DHT22;38907;45.562;8.856;2022-07-01T12:57:37;30.40;90.60
51021;DHT22;38907;45.562;8.856;2022-07-01T13:02:41;29.80;90.80
51021;DHT22;38907;45.562;8.856;2022-07-01T13:07:44;29.90;91.20
51021;DHT22;38907;45.562;8.856;2022-07-01T13:12:48;30.60;90.80
51021;DHT22;38907;45.562;8.856;2022-07-01T13:17:52;30.90;89.30
51021;DHT22;38907;45.562;8.856;2022-07-01T13:22:55;31.20;88.70
51021;DHT22;38907;45.562;8.856;2022-07-01T13:27:58;31.00;87.70
51021;DHT22;38907;45.562;8.856;2022-07-01T13:33:03;30.70;88.50
51021;DHT22;38907;45.562;8.856;2022-07-01T13:38:05;30.90;87.80
51021;DHT22;38907;45.562;8.856;2022-07-01T13:43:08;31.00;87.20
51021;DHT22;38907;45.562;8.856;2022-07-01T13:48:12;31.10;86.90
51021;DHT22;38907;45.562;8.856;2022-07-01T13:53:15;31.20;85.10
51021;DHT22;38907;45.562;8.856;2022-07-01T13:58:20;31.10;84.70
51021;DHT22;38907;45.562;8.856;2022-07-01T14:03:24;31.20;85.10
51021;DHT22;38907;45.562;8.856;2022-07-01T14:08:27;31.30;82.20
51021;DHT22;38907;45.562;8.856;2022-07-01T14:13:29;31.50;83.80
51021;DHT22;38907;45.562;8.856;2022-07-01T14:18:34;31.50;82.20
51021;DHT22;38907;45.562;8.856;2022-07-01T14:23:37;31.50;82.70
51021;DHT22;38907;45.562;8.856;2022-07-01T14:28:40;30.90;83.30
51021;DHT22;38907;45.562;8.856;2022-07-01T14:33:44;31.30;83.00
51021;DHT22;38907;45.562;8.856;2022-07-01T14:38:48;31.40;82.20
51021;DHT22;38907;45.562;8.856;2022-07-01T14:43:51;31.70;82.70
51021;DHT22;38907;45.562;8.856;2022-07-01T14:48:55;31.60;82.80
51021;DHT22;38907;45.562;8.856;2022-07-01T14:53:58;31.60;83.20
51021;DHT22;38907;45.562;8.856;2022-07-01T14:59:00;31.80;82.90
51021;DHT22;38907;45.562;8.856;2022-07-01T15:04:05;31.60;82.50
51021;DHT22;38907;45.562;8.856;2022-07-01T15:09:07;31.60;83.30
51021;DHT22;38907;45.562;8.856;2022-07-01T15:14:10;31.60;82.70
51021;DHT22;38907;45.562;8.856;2022-07-01T15:19:14;31.40;81.30
51021;DHT22;38907;45.562;8.856;2022-07-01T15:24:17;30.90;81.70
51021;DHT22;38907;45.562;8.856;2022-07-01T15:29:20;30.50;81.90
51021;DHT22;38907;45.562;8.856;2022-07-01T15:34:24;30.50;82.80
51021;DHT22;38907;45.562;8.856;2022-07-01T15:39:26;30.90;81.30
51021;DHT22;38907;45.562;8.856;2022-07-01T15:44:30;31.30;81.50
51021;DHT22;38907;45.562;8.856;2022-07-01T15:49:34;31.40;81.60
51021;DHT22;38907;45.562;8.856;2022-07-01T15:54:37;31.80;82.50
51021;DHT22;38907;45.562;8.856;2022-07-01T15:59:40;31.40;81.60
51021;DHT22;38907;45.562;8.856;2022-07-01T16:04:46;31.00;81.20
51021;DHT22;38907;45.562;8.856;2022-07-01T16:09:58;31.00;82.00
51021;DHT22;38907;45.562;8.856;2022-07-01T16:15:04;31.70;83.50
51021;DHT22;38907;45.562;8.856;2022-07-01T16:20:10;31.90;83.60
51021;DHT22;38907;45.562;8.856;2022-07-01T16:25:16;32.00;82.70
51021;DHT22;38907;45.562;8.856;2022-07-01T16:30:19;31.90;82.50
51021;DHT22;38907;45.562;8.856;2022-07-01T16:35:24;31.40;83.60
51021;DHT22;38907;45.562;8.856;2022-07-01T16:40:28;31.20;84.30
51021;DHT22;38907;45.562;8.856;2022-07-01T16:45:35;31.50;84.20
51021;DHT22;38907;45.562;8.856;2022-07-01T16:50:41;31.80;83.30
51021;DHT22;38907;45.562;8.856;2022-07-01T16:55:48;31.70;82.40
51021;DHT22;38907;45.562;8.856;2022-07-01T17:00:53;31.80;82.90
51021;DHT22;38907;45.562;8.856;2022-07-01T17:05:57;31.60;83.90
51021;DHT22;38907;45.562;8.856;2022-07-01T17:10:59;31.30;84.80
51021;DHT22;38907;45.562;8.856;2022-07-01T17:16:03;31.20;84.80
51021;DHT22;38907;45.562;8.856;2022-07-01T17:21:08;30.90;84.90
51021;DHT22;38907;45.562;8.856;2022-07-01T17:26:12;30.80;85.40
51021;DHT22;38907;45.562;8.856;2022-07-01T17:31:23;30.70;85.20
51021;DHT22;38907;45.562;8.856;2022-07-01T17:36:29;30.70;85.30
51021;DHT22;38907;45.562;8.856;2022-07-01T17:41:34;30.60;86.00
51021;DHT22;38907;45.562;8.856;2022-07-01T17:46:39;30.60;86.20
51021;DHT22;38907;45.562;8.856;2022-07-01T17:51:49;30.60;86.90
51021;DHT22;38907;45.562;8.856;2022-07-01T17:56:52;30.40;87.20
51021;DHT22;38907;45.562;8.856;2022-07-01T18:01:56;30.30;88.00
51021;DHT22;38907;45.562;8.856;2022-07-01T18:07:00;30.30;88.00
51021;DHT22;38907;45.562;8.856;2022-07-01T18:12:11;30.20;88.30
51021;DHT22;38907;45.562;8.856;2022-07-01T18:17:17;30.10;88.10
51021;DHT22;38907;45.562;8.856;2022-07-01T18:22:25;30.00;88.40
51021;DHT22;38907;45.562;8.856;2022-07-01T18:27:35;29.90;88.70
51021;DHT22;38907;45.562;8.856;2022-07-01T18:32:39;29.90;88.60
51021;DHT22;38907;45.562;8.856;2022-07-01T18:37:46;29.80;88.60
51021;DHT22;38907;45.562;8.856;2022-07-01T18:42:51;29.70;89.10
51021;DHT22;38907;45.562;8.856;2022-07-01T18:47:53;29.60;89.50
51021;DHT22;38907;45.562;8.856;2022-07-01T18:52:58;29.40;89.80
51021;DHT22;38907;45.562;8.856;2022-07-01T18:58:01;29.30;90.10
51021;DHT22;38907;45.562;8.856;2022-07-01T19:03:04;29.20;90.30
51021;DHT22;38907;45.562;8.856;2022-07-01T19:08:08;29.10;90.70
51021;DHT22;38907;45.562;8.856;2022-07-01T19:13:11;28.90;91.00
51021;DHT22;38907;45.562;8.856;2022-07-01T19:18:14;28.80;91.30
51021;DHT22;38907;45.562;8.856;2022-07-01T19:23:18;28.80;91.30
51021;DHT22;38907;45.562;8.856;2022-07-01T19:28:21;28.70;91.40
51021;DHT22;38907;45.562;8.856;2022-07-01T19:33:25;28.60;91.60
51021;DHT22;38907;45.562;8.856;2022-07-01T19:38:29;28.60;91.60
51021;DHT22;38907;45.562;8.856;2022-07-01T19:43:32;28.60;91.60
51021;DHT22;38907;45.562;8.856;2022-07-01T19:48:35;28.60;91.60
51021;DHT22;38907;45.562;8.856;2022-07-01T19:53:40;28.50;91.30
51021;DHT22;38907;45.562;8.856;2022-07-01T19:58:45;28.40;90.90
51021;DHT22;38907;45.562;8.856;2022-07-01T20:03:49;28.30;90.80
51021;DHT22;38907;45.562;8.856;2022-07-01T20:08:54;28.20;90.80
51021;DHT22;38907;45.562;8.856;2022-07-01T20:13:57;28.20;90.80
51021;DHT22;38907;45.562;8.856;2022-07-01T20:19:02;28.00;91.00
51021;DHT22;38907;45.562;8.856;2022-07-01T20:24:07;28.00;91.00
51021;DHT22;38907;45.562;8.856;2022-07-01T20:29:13;28.00;91.20
51021;DHT22;38907;45.562;8.856;2022-07-01T20:34:18;27.90;91.10
51021;DHT22;38907;45.562;8.856;2022-07-01T20:39:23;27.90;91.20
51021;DHT22;38907;45.562;8.856;2022-07-01T20:44:25;27.90;91.00
51021;DHT22;38907;45.562;8.856;2022-07-01T20:49:28;27.70;91.10
51021;DHT22;38907;45.562;8.856;2022-07-01T20:54:32;27.70;91.20
51021;DHT22;38907;45.562;8.856;2022-07-01T20:59:35;27.50;91.30
51021;DHT22;38907;45.562;8.856;2022-07-01T21:04:38;27.40;91.70
51021;DHT22;38907;45.562;8.856;2022-07-01T21:09:42;27.20;91.70
51021;DHT22;38907;45.562;8.856;2022-07-01T21:14:45;27.10;91.40
51021;DHT22;38907;45.562;8.856;2022-07-01T21:19:48;27.10;91.70
51021;DHT22;38907;45.562;8.856;2022-07-01T21:24:52;27.00;91.80
51021;DHT22;38907;45.562;8.856;2022-07-01T21:29:55;27.00;91.80
51021;DHT22;38907;45.562;8.856;2022-07-01T21:35:02;27.00;91.80
51021;DHT22;38907;45.562;8.856;2022-07-01T21:40:08;26.90;92.00
51021;DHT22;38907;45.562;8.856;2022-07-01T21:45:11;26.80;92.30
51021;DHT22;38907;45.562;8.856;2022-07-01T21:50:13;26.70;92.50
51021;DHT22;38907;45.562;8.856;2022-07-01T21:55:19;26.60;92.60
51021;DHT22;38907;45.562;8.856;2022-07-01T22:00:24;26.60;92.50
51021;DHT22;38907;45.562;8.856;2022-07-01T22:05:27;26.50;92.80
51021;DHT22;38907;45.562;8.856;2022-07-01T22:10:58;26.50;92.60
51021;DHT22;38907;45.562;8.856;2022-07-01T22:16:05;26.40;92.30
51021;DHT22;38907;45.562;8.856;2022-07-01T22:21:11;26.50;91.80
51021;DHT22;38907;45.562;8.856;2022-07-01T22:26:15;26.40;92.10
51021;DHT22;38907;45.562;8.856;2022-07-01T22:31:19;25.90;93.20
51021;DHT22;38907;45.562;8.856;2022-07-01T22:36:22;25.50;92.90
51021;DHT22;38907;45.562;8.856;2022-07-01T22:41:27;25.40;92.50
51021;DHT22;38907;45.562;8.856;2022-07-01T22:46:42;25.40;92.00
51021;DHT22;38907;45.562;8.856;2022-07-01T22:51:53;25.60;91.70
51021;DHT22;38907;45.562;8.856;2022-07-01T22:56:59;25.70;91.50
51021;DHT22;38907;45.562;8.856;2022-07-01T23:02:03;25.90;91.40
51021;DHT22;38907;45.562;8.856;2022-07-01T23:07:25;25.90;91.50
51021;DHT22;38907;45.562;8.856;2022-07-01T23:12:37;25.70;91.90
51021;DHT22;38907;45.562;8.856;2022-07-01T23:17:42;25.60;91.90
51021;DHT22;38907;45.562;8.856;2022-07-01T23:22:48;25.60;92.30
51021;DHT22;38907;45.562;8.856;2022-07-01T23:27:54;25.50;92.40
51021;DHT22;38907;45.562;8.856;2022-07-01T23:32:58;25.50;92.30
51021;DHT22;38907;45.562;8.856;2022-07-01T23:38:01;25.30;92.30
51021;DHT22;38907;45.562;8.856;2022-07-01T23:43:06;25.30;91.50
51021;DHT22;38907;45.562;8.856;2022-07-01T23:48:09;25.50;91.10
51021;DHT22;38907;45.562;8.856;2022-07-01T23:53:11;25.50;90.90
51021;DHT22;38907;45.562;8.856;2022-07-01T23:58:15;25.50;90.90
